sensor_id;sensor_type;location;lat;lon;timestamp;P1;durP1;ratioP1;P2;durP2;ratioP2
974;SDS011;6115;49.296;10.602;2022-07-24T00:01:25;10.57;;;9.57;;
974;SDS011;6115;49.296;10.602;2022-07-24T00:06:25;11.67;;;10.47;;
974;SDS011;6115;49.296;10.602;2022-07-24T00:11:26;11.80;;;10.27;;
974;SDS011;6115;49.296;10.602;2022-07-24T00:16:26;12.67;;;11.27;;
974;SDS011;6115;49.296;10.602;2022-07-24T00:21:27;11.40;;;10.30;;
974;SDS011;6115;49.296;10.602;2022-07-24T00:26:28;12.47;;;11.37;;
974;SDS011;6115;49.296;10.602;2022-07-24T00:31:28;12.93;;;11.70;;
974;SDS011;6115;49.296;10.602;2022-07-24T00:36:29;12.43;;;11.33;;
974;SDS011;6115;49.296;10.602;2022-07-24T00:41:30;13.67;;;12.57;;
974;SDS011;6115;49.296;10.602;2022-07-24T00:46:31;13.40;;;12.30;;
974;SDS011;6115;49.296;10.602;2022-07-24T00:51:33;13.63;;;12.40;;
974;SDS011;6115;49.296;10.602;2022-07-24T00:56:35;13.73;;;11.43;;
974;SDS011;6115;49.296;10.602;2022-07-24T01:01:36;11.90;;;10.77;;
974;SDS011;6115;49.296;10.602;2022-07-24T01:06:36;11.97;;;10.97;;
974;SDS011;6115;49.296;10.602;2022-07-24T01:11:43;11.57;;;10.60;;
974;SDS011;6115;49.296;10.602;2022-07-24T01:16:44;11.90;;;10.70;;
974;SDS011;6115;49.296;10.602;2022-07-24T01:21:48;13.30;;;12.10;;
974;SDS011;6115;49.296;10.602;2022-07-24T01:26:50;13.37;;;12.17;;
974;SDS011;6115;49.296;10.602;2022-07-24T01:31:51;13.40;;;12.10;;
974;SDS011;6115;49.296;10.602;2022-07-24T01:36:51;13.03;;;11.90;;
974;SDS011;6115;49.296;10.602;2022-07-24T01:41:52;12.93;;;11.73;;
974;SDS011;6115;49.296;10.602;2022-07-24T01:46:53;13.50;;;12.10;;
974;SDS011;6115;49.296;10.602;2022-07-24T01:51:53;13.73;;;12.40;;
974;SDS011;6115;49.296;10.602;2022-07-24T01:56:54;13.97;;;12.67;;
974;SDS011;6115;49.296;10.602;2022-07-24T02:01:54;13.40;;;12.07;;
974;SDS011;6115;49.296;10.602;2022-07-24T02:06:55;14.37;;;12.50;;
974;SDS011;6115;49.296;10.602;2022-07-24T02:11:56;16.10;;;12.20;;
974;SDS011;6115;49.296;10.602;2022-07-24T02:16:56;13.83;;;12.43;;
974;SDS011;6115;49.296;10.602;2022-07-24T02:21:57;13.90;;;12.47;;
974;SDS011;6115;49.296;10.602;2022-07-24T02:26:58;12.40;;;11.40;;
974;SDS011;6115;49.296;10.602;2022-07-24T02:31:58;15.00;;;13.63;;
974;SDS011;6115;49.296;10.602;2022-07-24T02:37:00;13.73;;;12.50;;
974;SDS011;6115;49.296;10.602;2022-07-24T02:42:00;14.90;;;13.50;;
974;SDS011;6115;49.296;10.602;2022-07-24T02:47:01;15.60;;;14.03;;
974;SDS011;6115;49.296;10.602;2022-07-24T02:52:02;14.47;;;13.10;;
974;SDS011;6115;49.296;10.602;2022-07-24T02:57:03;16.57;;;14.90;;
974;SDS011;6115;49.296;10.602;2022-07-24T03:02:03;14.47;;;13.10;;
974;SDS011;6115;49.296;10.602;2022-07-24T03:07:04;15.23;;;13.73;;
974;SDS011;6115;49.296;10.602;2022-07-24T03:12:05;16.47;;;14.93;;
974;SDS011;6115;49.296;10.602;2022-07-24T03:17:05;19.23;;;15.57;;
974;SDS011;6115;49.296;10.602;2022-07-24T03:22:06;16.80;;;15.30;;
974;SDS011;6115;49.296;10.602;2022-07-24T03:27:07;17.10;;;15.30;;
974;SDS011;6115;49.296;10.602;2022-07-24T03:32:07;17.70;;;16.03;;
974;SDS011;6115;49.296;10.602;2022-07-24T03:37:08;20.70;;;15.43;;
974;SDS011;6115;49.296;10.602;2022-07-24T03:42:08;17.23;;;15.53;;
974;SDS011;6115;49.296;10.602;2022-07-24T03:47:09;18.43;;;16.53;;
974;SDS011;6115;49.296;10.602;2022-07-24T03:52:09;17.87;;;16.17;;
974;SDS011;6115;49.296;10.602;2022-07-24T03:57:10;17.70;;;15.90;;
974;SDS011;6115;49.296;10.602;2022-07-24T04:02:11;16.80;;;15.03;;
974;SDS011;6115;49.296;10.602;2022-07-24T04:07:11;17.10;;;15.17;;
974;SDS011;6115;49.296;10.602;2022-07-24T04:12:12;15.40;;;14.00;;
974;SDS011;6115;49.296;10.602;2022-07-24T04:17:12;17.93;;;16.13;;
974;SDS011;6115;49.296;10.602;2022-07-24T04:22:13;17.50;;;15.80;;
974;SDS011;6115;49.296;10.602;2022-07-24T04:27:14;23.13;;;16.30;;
974;SDS011;6115;49.296;10.602;2022-07-24T04:32:14;16.40;;;14.90;;
974;SDS011;6115;49.296;10.602;2022-07-24T04:37:15;18.20;;;15.60;;
974;SDS011;6115;49.296;10.602;2022-07-24T04:42:15;16.10;;;14.40;;
974;SDS011;6115;49.296;10.602;2022-07-24T04:47:16;17.07;;;15.33;;
974;SDS011;6115;49.296;10.602;2022-07-24T04:52:16;16.43;;;13.97;;
974;SDS011;6115;49.296;10.602;2022-07-24T04:57:17;16.60;;;15.10;;
974;SDS011;6115;49.296;10.602;2022-07-24T05:02:17;18.53;;;16.87;;
974;SDS011;6115;49.296;10.602;2022-07-24T05:07:18;16.37;;;14.83;;
974;SDS011;6115;49.296;10.602;2022-07-24T05:12:19;16.60;;;14.90;;
974;SDS011;6115;49.296;10.602;2022-07-24T05:17:20;16.80;;;15.10;;
974;SDS011;6115;49.296;10.602;2022-07-24T05:22:21;15.77;;;14.37;;
974;SDS011;6115;49.296;10.602;2022-07-24T05:27:21;15.10;;;13.70;;
974;SDS011;6115;49.296;10.602;2022-07-24T05:32:22;15.43;;;14.03;;
974;SDS011;6115;49.296;10.602;2022-07-24T05:37:22;16.00;;;14.43;;
974;SDS011;6115;49.296;10.602;2022-07-24T05:42:23;16.60;;;14.97;;
974;SDS011;6115;49.296;10.602;2022-07-24T05:47:24;16.57;;;14.93;;
974;SDS011;6115;49.296;10.602;2022-07-24T05:52:27;16.67;;;15.17;;
974;SDS011;6115;49.296;10.602;2022-07-24T05:57:28;16.10;;;14.50;;
974;SDS011;6115;49.296;10.602;2022-07-24T06:02:29;15.53;;;14.23;;
974;SDS011;6115;49.296;10.602;2022-07-24T06:07:29;16.93;;;14.83;;
974;SDS011;6115;49.296;10.602;2022-07-24T06:12:30;16.23;;;14.80;;
974;SDS011;6115;49.296;10.602;2022-07-24T06:17:31;17.30;;;15.70;;
974;SDS011;6115;49.296;10.602;2022-07-24T06:22:31;16.53;;;15.03;;
974;SDS011;6115;49.296;10.602;2022-07-24T06:27:32;18.23;;;16.53;;
974;SDS011;6115;49.296;10.602;2022-07-24T06:32:32;19.40;;;17.60;;
974;SDS011;6115;49.296;10.602;2022-07-24T06:37:33;18.60;;;16.97;;
974;SDS011;6115;49.296;10.602;2022-07-24T06:42:34;18.47;;;16.80;;
974;SDS011;6115;49.296;10.602;2022-07-24T06:47:35;17.60;;;15.97;;
974;SDS011;6115;49.296;10.602;2022-07-24T06:52:35;17.57;;;15.67;;
974;SDS011;6115;49.296;10.602;2022-07-24T06:57:36;16.33;;;14.83;;
974;SDS011;6115;49.296;10.602;2022-07-24T07:02:37;15.83;;;14.43;;
974;SDS011;6115;49.296;10.602;2022-07-24T07:07:38;15.80;;;14.40;;
974;SDS011;6115;49.296;10.602;2022-07-24T07:12:39;14.40;;;13.20;;
974;SDS011;6115;49.296;10.602;2022-07-24T07:17:40;14.00;;;12.90;;
974;SDS011;6115;49.296;10.602;2022-07-24T07:22:41;13.87;;;12.47;;
974;SDS011;6115;49.296;10.602;2022-07-24T07:27:43;13.67;;;12.47;;
974;SDS011;6115;49.296;10.602;2022-07-24T07:32:43;14.07;;;12.57;;
974;SDS011;6115;49.296;10.602;2022-07-24T07:37:44;13.83;;;12.43;;
974;SDS011;6115;49.296;10.602;2022-07-24T07:42:46;15.83;;;11.33;;
974;SDS011;6115;49.296;10.602;2022-07-24T07:47:47;11.60;;;10.57;;
974;SDS011;6115;49.296;10.602;2022-07-24T07:52:47;12.10;;;11.10;;
974;SDS011;6115;49.296;10.602;2022-07-24T07:57:48;11.60;;;10.60;;
974;SDS011;6115;49.296;10.602;2022-07-24T08:02:49;12.33;;;11.23;;
974;SDS011;6115;49.296;10.602;2022-07-24T08:07:49;9.77;;;8.87;;
974;SDS011;6115;49.296;10.602;2022-07-24T08:12:50;9.93;;;8.93;;
974;SDS011;6115;49.296;10.602;2022-07-24T08:17:51;8.93;;;8.27;;
974;SDS011;6115;49.296;10.602;2022-07-24T08:22:53;9.53;;;8.63;;
974;SDS011;6115;49.296;10.602;2022-07-24T08:27:54;10.03;;;9.10;;
974;SDS011;6115;49.296;10.602;2022-07-24T08:32:55;8.50;;;7.80;;
974;SDS011;6115;49.296;10.602;2022-07-24T08:37:55;9.53;;;8.73;;
974;SDS011;6115;49.296;10.602;2022-07-24T08:42:56;9.23;;;8.53;;
974;SDS011;6115;49.296;10.602;2022-07-24T08:47:57;9.07;;;8.37;;
974;SDS011;6115;49.296;10.602;2022-07-24T08:52:58;8.60;;;7.80;;
974;SDS011;6115;49.296;10.602;2022-07-24T08:58:01;9.60;;;8.70;;
974;SDS011;6115;49.296;10.602;2022-07-24T09:03:02;9.60;;;8.80;;
974;SDS011;6115;49.296;10.602;2022-07-24T09:08:06;9.53;;;8.70;;
974;SDS011;6115;49.296;10.602;2022-07-24T09:13:12;9.00;;;8.30;;
974;SDS011;6115;49.296;10.602;2022-07-24T09:18:30;9.43;;;8.53;;
974;SDS011;6115;49.296;10.602;2022-07-24T09:23:36;10.20;;;9.23;;
974;SDS011;6115;49.296;10.602;2022-07-24T09:28:50;9.40;;;8.60;;
974;SDS011;6115;49.296;10.602;2022-07-24T09:33:52;9.60;;;8.80;;
974;SDS011;6115;49.296;10.602;2022-07-24T09:38:53;8.83;;;8.03;;
974;SDS011;6115;49.296;10.602;2022-07-24T09:43:57;8.60;;;7.90;;
974;SDS011;6115;49.296;10.602;2022-07-24T09:48:59;8.70;;;8.00;;
974;SDS011;6115;49.296;10.602;2022-07-24T09:54:00;8.50;;;7.80;;
974;SDS011;6115;49.296;10.602;2022-07-24T09:59:01;8.47;;;7.80;;
974;SDS011;6115;49.296;10.602;2022-07-24T10:04:07;8.73;;;8.07;;
974;SDS011;6115;49.296;10.602;2022-07-24T10:09:09;8.07;;;7.47;;
974;SDS011;6115;49.296;10.602;2022-07-24T10:14:12;9.43;;;7.40;;
974;SDS011;6115;49.296;10.602;2022-07-24T10:19:14;9.00;;;7.80;;
974;SDS011;6115;49.296;10.602;2022-07-24T10:24:24;7.77;;;7.20;;
974;SDS011;6115;49.296;10.602;2022-07-24T10:29:41;7.63;;;7.03;;
974;SDS011;6115;49.296;10.602;2022-07-24T10:45:17;6.93;;;6.43;;
974;SDS011;6115;49.296;10.602;2022-07-24T10:50:19;8.07;;;7.47;;
974;SDS011;6115;49.296;10.602;2022-07-24T11:00:36;6.70;;;6.20;;
974;SDS011;6115;49.296;10.602;2022-07-24T11:05:39;6.90;;;6.40;;
974;SDS011;6115;49.296;10.602;2022-07-24T11:10:52;7.10;;;6.60;;
974;SDS011;6115;49.296;10.602;2022-07-24T11:21:10;8.60;;;7.80;;
974;SDS011;6115;49.296;10.602;2022-07-24T11:31:32;7.47;;;6.77;;
974;SDS011;6115;49.296;10.602;2022-07-24T11:36:39;6.90;;;6.40;;
974;SDS011;6115;49.296;10.602;2022-07-24T11:41:49;7.80;;;7.10;;
974;SDS011;6115;49.296;10.602;2022-07-24T11:46:51;7.60;;;7.00;;
974;SDS011;6115;49.296;10.602;2022-07-24T11:51:53;7.30;;;6.73;;
974;SDS011;6115;49.296;10.602;2022-07-24T11:56:54;7.10;;;6.57;;
974;SDS011;6115;49.296;10.602;2022-07-24T12:01:56;7.00;;;6.50;;
974;SDS011;6115;49.296;10.602;2022-07-24T12:07:10;7.43;;;6.83;;
974;SDS011;6115;49.296;10.602;2022-07-24T12:17:26;7.77;;;7.07;;
974;SDS011;6115;49.296;10.602;2022-07-24T12:22:28;7.40;;;6.80;;
974;SDS011;6115;49.296;10.602;2022-07-24T12:27:39;6.83;;;6.33;;
974;SDS011;6115;49.296;10.602;2022-07-24T12:32:51;7.13;;;6.63;;
974;SDS011;6115;49.296;10.602;2022-07-24T12:38:03;6.70;;;6.20;;
974;SDS011;6115;49.296;10.602;2022-07-24T12:43:06;7.07;;;6.47;;
974;SDS011;6115;49.296;10.602;2022-07-24T12:48:10;7.43;;;6.80;;
974;SDS011;6115;49.296;10.602;2022-07-24T12:53:16;6.93;;;6.33;;
974;SDS011;6115;49.296;10.602;2022-07-24T12:58:17;7.23;;;6.63;;
974;SDS011;6115;49.296;10.602;2022-07-24T13:03:23;6.33;;;5.90;;
974;SDS011;6115;49.296;10.602;2022-07-24T13:08:25;6.33;;;5.83;;
974;SDS011;6115;49.296;10.602;2022-07-24T13:13:25;6.90;;;6.30;;
974;SDS011;6115;49.296;10.602;2022-07-24T13:18:26;6.43;;;5.93;;
974;SDS011;6115;49.296;10.602;2022-07-24T13:23:26;6.33;;;5.80;;
974;SDS011;6115;49.296;10.602;2022-07-24T13:28:27;8.53;;;6.07;;
974;SDS011;6115;49.296;10.602;2022-07-24T13:33:28;6.20;;;5.80;;
974;SDS011;6115;49.296;10.602;2022-07-24T13:38:28;5.60;;;5.20;;
974;SDS011;6115;49.296;10.602;2022-07-24T13:43:29;6.07;;;5.60;;
974;SDS011;6115;49.296;10.602;2022-07-24T13:48:29;6.10;;;5.50;;
974;SDS011;6115;49.296;10.602;2022-07-24T13:53:30;6.23;;;5.73;;
974;SDS011;6115;49.296;10.602;2022-07-24T13:58:30;6.47;;;6.07;;
974;SDS011;6115;49.296;10.602;2022-07-24T14:03:34;6.60;;;5.93;;
974;SDS011;6115;49.296;10.602;2022-07-24T14:08:37;5.60;;;5.20;;
974;SDS011;6115;49.296;10.602;2022-07-24T14:13:42;5.73;;;5.40;;
974;SDS011;6115;49.296;10.602;2022-07-24T14:18:43;5.77;;;5.37;;
974;SDS011;6115;49.296;10.602;2022-07-24T14:23:43;6.07;;;5.67;;
974;SDS011;6115;49.296;10.602;2022-07-24T14:28:44;5.57;;;5.20;;
974;SDS011;6115;49.296;10.602;2022-07-24T14:33:44;6.17;;;5.77;;
974;SDS011;6115;49.296;10.602;2022-07-24T14:38:45;6.17;;;5.70;;
974;SDS011;6115;49.296;10.602;2022-07-24T14:43:45;8.07;;;5.50;;
974;SDS011;6115;49.296;10.602;2022-07-24T14:48:46;6.50;;;6.10;;
974;SDS011;6115;49.296;10.602;2022-07-24T14:53:47;6.50;;;6.00;;
974;SDS011;6115;49.296;10.602;2022-07-24T14:58:47;5.80;;;5.43;;
974;SDS011;6115;49.296;10.602;2022-07-24T15:03:48;5.83;;;5.43;;
974;SDS011;6115;49.296;10.602;2022-07-24T15:08:48;6.93;;;6.10;;
974;SDS011;6115;49.296;10.602;2022-07-24T15:13:49;6.23;;;5.77;;
974;SDS011;6115;49.296;10.602;2022-07-24T15:18:49;6.03;;;5.63;;
974;SDS011;6115;49.296;10.602;2022-07-24T15:23:50;7.53;;;6.03;;
974;SDS011;6115;49.296;10.602;2022-07-24T15:28:50;5.87;;;5.37;;
974;SDS011;6115;49.296;10.602;2022-07-24T15:33:51;6.80;;;6.30;;
974;SDS011;6115;49.296;10.602;2022-07-24T15:38:51;6.63;;;6.23;;
974;SDS011;6115;49.296;10.602;2022-07-24T15:43:52;6.30;;;5.73;;
974;SDS011;6115;49.296;10.602;2022-07-24T15:48:53;6.13;;;5.67;;
974;SDS011;6115;49.296;10.602;2022-07-24T15:53:54;6.07;;;5.43;;
974;SDS011;6115;49.296;10.602;2022-07-24T15:58:56;6.20;;;5.80;;
974;SDS011;6115;49.296;10.602;2022-07-24T16:03:57;6.70;;;6.10;;
974;SDS011;6115;49.296;10.602;2022-07-24T16:08:57;13.23;;;6.57;;
974;SDS011;6115;49.296;10.602;2022-07-24T16:13:58;6.50;;;6.00;;
974;SDS011;6115;49.296;10.602;2022-07-24T16:19:02;7.27;;;6.77;;
974;SDS011;6115;49.296;10.602;2022-07-24T16:24:02;7.20;;;6.60;;
974;SDS011;6115;49.296;10.602;2022-07-24T16:29:03;7.17;;;6.67;;
974;SDS011;6115;49.296;10.602;2022-07-24T16:34:04;8.47;;;7.70;;
974;SDS011;6115;49.296;10.602;2022-07-24T16:39:04;6.43;;;6.00;;
974;SDS011;6115;49.296;10.602;2022-07-24T16:44:05;7.07;;;6.57;;
974;SDS011;6115;49.296;10.602;2022-07-24T16:49:05;6.73;;;6.33;;
974;SDS011;6115;49.296;10.602;2022-07-24T16:54:06;6.80;;;6.30;;
974;SDS011;6115;49.296;10.602;2022-07-24T16:59:07;6.83;;;6.33;;
974;SDS011;6115;49.296;10.602;2022-07-24T17:04:08;9.27;;;7.00;;
974;SDS011;6115;49.296;10.602;2022-07-24T17:09:09;7.30;;;6.70;;
974;SDS011;6115;49.296;10.602;2022-07-24T17:14:09;6.87;;;6.37;;
974;SDS011;6115;49.296;10.602;2022-07-24T17:19:10;7.33;;;6.80;;
974;SDS011;6115;49.296;10.602;2022-07-24T17:24:11;7.00;;;6.40;;
974;SDS011;6115;49.296;10.602;2022-07-24T17:29:12;7.00;;;6.33;;
974;SDS011;6115;49.296;10.602;2022-07-24T17:34:13;9.40;;;6.87;;
974;SDS011;6115;49.296;10.602;2022-07-24T17:39:13;8.00;;;7.40;;
974;SDS011;6115;49.296;10.602;2022-07-24T17:44:14;7.50;;;6.97;;
974;SDS011;6115;49.296;10.602;2022-07-24T17:49:15;6.93;;;6.33;;
974;SDS011;6115;49.296;10.602;2022-07-24T17:54:16;7.70;;;7.10;;
974;SDS011;6115;49.296;10.602;2022-07-24T17:59:16;7.43;;;6.83;;
974;SDS011;6115;49.296;10.602;2022-07-24T18:04:17;7.30;;;6.80;;
974;SDS011;6115;49.296;10.602;2022-07-24T18:09:17;10.37;;;7.10;;
974;SDS011;6115;49.296;10.602;2022-07-24T18:14:18;6.83;;;6.37;;
974;SDS011;6115;49.296;10.602;2022-07-24T18:19:19;7.10;;;6.53;;
974;SDS011;6115;49.296;10.602;2022-07-24T18:24:19;7.40;;;6.80;;
974;SDS011;6115;49.296;10.602;2022-07-24T18:29:20;7.97;;;7.20;;
974;SDS011;6115;49.296;10.602;2022-07-24T18:34:20;8.50;;;7.80;;
974;SDS011;6115;49.296;10.602;2022-07-24T18:39:21;8.33;;;7.53;;
974;SDS011;6115;49.296;10.602;2022-07-24T18:44:22;7.73;;;7.10;;
974;SDS011;6115;49.296;10.602;2022-07-24T18:49:22;8.50;;;7.87;;
974;SDS011;6115;49.296;10.602;2022-07-24T18:54:23;9.23;;;8.50;;
974;SDS011;6115;49.296;10.602;2022-07-24T18:59:23;10.20;;;9.20;;
974;SDS011;6115;49.296;10.602;2022-07-24T19:04:24;9.97;;;8.90;;
974;SDS011;6115;49.296;10.602;2022-07-24T19:09:25;8.90;;;8.07;;
974;SDS011;6115;49.296;10.602;2022-07-24T19:14:25;10.07;;;9.17;;
974;SDS011;6115;49.296;10.602;2022-07-24T19:19:26;8.50;;;7.80;;
974;SDS011;6115;49.296;10.602;2022-07-24T19:24:27;9.30;;;8.60;;
974;SDS011;6115;49.296;10.602;2022-07-24T19:29:29;8.30;;;7.33;;
974;SDS011;6115;49.296;10.602;2022-07-24T19:34:29;10.07;;;9.17;;
974;SDS011;6115;49.296;10.602;2022-07-24T19:39:32;9.40;;;8.60;;
974;SDS011;6115;49.296;10.602;2022-07-24T19:44:33;9.47;;;8.70;;
974;SDS011;6115;49.296;10.602;2022-07-24T19:49:34;10.67;;;9.43;;
974;SDS011;6115;49.296;10.602;2022-07-24T19:54:34;9.70;;;8.80;;
974;SDS011;6115;49.296;10.602;2022-07-24T19:59:35;10.07;;;9.07;;
974;SDS011;6115;49.296;10.602;2022-07-24T20:04:36;9.83;;;9.03;;
974;SDS011;6115;49.296;10.602;2022-07-24T20:09:37;9.20;;;8.40;;
974;SDS011;6115;49.296;10.602;2022-07-24T20:14:38;11.30;;;10.30;;
974;SDS011;6115;49.296;10.602;2022-07-24T20:19:39;10.60;;;9.67;;
974;SDS011;6115;49.296;10.602;2022-07-24T20:24:39;10.47;;;9.40;;
974;SDS011;6115;49.296;10.602;2022-07-24T20:29:40;9.77;;;8.73;;
974;SDS011;6115;49.296;10.602;2022-07-24T20:34:41;10.90;;;9.90;;
974;SDS011;6115;49.296;10.602;2022-07-24T20:39:42;11.67;;;10.77;;
974;SDS011;6115;49.296;10.602;2022-07-24T20:44:42;12.60;;;11.40;;
974;SDS011;6115;49.296;10.602;2022-07-24T20:49:43;11.73;;;10.83;;
974;SDS011;6115;49.296;10.602;2022-07-24T20:54:43;15.20;;;11.77;;
974;SDS011;6115;49.296;10.602;2022-07-24T20:59:44;11.93;;;10.93;;
974;SDS011;6115;49.296;10.602;2022-07-24T21:04:44;11.73;;;10.70;;
974;SDS011;6115;49.296;10.602;2022-07-24T21:09:45;11.97;;;10.87;;
974;SDS011;6115;49.296;10.602;2022-07-24T21:14:45;11.07;;;10.17;;
974;SDS011;6115;49.296;10.602;2022-07-24T21:19:46;12.17;;;10.90;;
974;SDS011;6115;49.296;10.602;2022-07-24T21:24:46;12.63;;;11.63;;
974;SDS011;6115;49.296;10.602;2022-07-24T21:29:47;13.10;;;11.80;;
974;SDS011;6115;49.296;10.602;2022-07-24T21:34:48;13.77;;;10.50;;
974;SDS011;6115;49.296;10.602;2022-07-24T21:39:48;12.80;;;11.70;;
974;SDS011;6115;49.296;10.602;2022-07-24T21:44:49;13.03;;;11.80;;
974;SDS011;6115;49.296;10.602;2022-07-24T21:49:49;12.20;;;11.17;;
974;SDS011;6115;49.296;10.602;2022-07-24T21:54:50;13.23;;;11.93;;
974;SDS011;6115;49.296;10.602;2022-07-24T21:59:50;13.43;;;12.20;;
974;SDS011;6115;49.296;10.602;2022-07-24T22:04:51;12.50;;;11.40;;
974;SDS011;6115;49.296;10.602;2022-07-24T22:09:51;12.60;;;11.60;;
974;SDS011;6115;49.296;10.602;2022-07-24T22:14:52;12.53;;;11.43;;
974;SDS011;6115;49.296;10.602;2022-07-24T22:19:53;13.03;;;11.83;;
974;SDS011;6115;49.296;10.602;2022-07-24T22:24:53;12.53;;;11.50;;
974;SDS011;6115;49.296;10.602;2022-07-24T22:29:54;12.97;;;11.87;;
974;SDS011;6115;49.296;10.602;2022-07-24T22:34:54;13.80;;;12.60;;
974;SDS011;6115;49.296;10.602;2022-07-24T22:40:03;13.13;;;11.93;;
974;SDS011;6115;49.296;10.602;2022-07-24T22:45:09;13.73;;;12.63;;
974;SDS011;6115;49.296;10.602;2022-07-24T22:50:10;12.83;;;11.80;;
974;SDS011;6115;49.296;10.602;2022-07-24T22:55:11;12.73;;;11.53;;
974;SDS011;6115;49.296;10.602;2022-07-24T23:00:13;13.50;;;12.20;;
974;SDS011;6115;49.296;10.602;2022-07-24T23:05:14;13.17;;;11.97;;
974;SDS011;6115;49.296;10.602;2022-07-24T23:10:15;17.17;;;14.30;;
974;SDS011;6115;49.296;10.602;2022-07-24T23:15:15;15.13;;;13.73;;
974;SDS011;6115;49.296;10.602;2022-07-24T23:20:16;13.77;;;12.67;;
974;SDS011;6115;49.296;10.602;2022-07-24T23:25:17;14.47;;;13.07;;
974;SDS011;6115;49.296;10.602;2022-07-24T23:30:17;15.80;;;14.20;;
974;SDS011;6115;49.296;10.602;2022-07-24T23:35:18;18.93;;;13.63;;
974;SDS011;6115;49.296;10.602;2022-07-24T23:40:19;16.87;;;15.17;;
974;SDS011;6115;49.296;10.602;2022-07-24T23:45:19;25.40;;;20.57;;
974;SDS011;6115;49.296;10.602;2022-07-24T23:50:20;27.70;;;19.33;;
974;SDS011;6115;49.296;10.602;2022-07-24T23:55:20;17.70;;;15.83;;
